Time;durP1;ratioP1;P1;durP2;ratioP2;P2;SDS_P1;SDS_P2;PMS_P1;PMS_P2;Temp;Humidity;BMP_temperature;BMP_pressure;BME280_temperature;BME280_humidity;BME280_pressure;Samples;Min_cycle;Max_cycle;Signal;HPM_P1;HPM_P2
2024/03/27 00:01:19;;;;;;;8.90;4.70;;;;;;;4.69;56.52;97903.65;105860;1255;109027;-79
2024/03/27 00:03:48;;;;;;;8.30;5.00;;;;;;;4.63;56.41;97896.89;105692;1250;96629;-81
2024/03/27 00:06:16;;;;;;;11.00;6.40;;;;;;;4.55;56.55;97894.52;105659;1257;107528;-80
2024/03/27 00:08:45;;;;;;;8.40;5.50;;;;;;;4.51;56.63;97892.39;105881;1254;97410;-81
2024/03/27 00:11:13;;;;;;;12.40;4.80;;;;;;;4.45;56.52;97887.86;106120;1255;97839;-78
2024/03/27 00:13:41;;;;;;;9.80;4.90;;;;;;;4.40;56.53;97886.58;105999;1256;109941;-81
2024/03/27 00:16:09;;;;;;;9.40;4.80;;;;;;;4.36;56.51;97878.96;105859;1251;96613;-79
2024/03/27 00:18:37;;;;;;;8.80;4.70;;;;;;;4.32;56.61;97882.38;105959;1264;108782;-77
2024/03/27 00:21:06;;;;;;;8.90;4.90;;;;;;;4.29;56.66;97877.63;106826;1251;96718;-79
2024/03/27 00:23:36;;;;;;;9.10;4.30;;;;;;;4.30;56.68;97881.11;105729;1254;96622;-79
2024/03/27 00:26:04;;;;;;;6.40;4.00;;;;;;;4.29;56.90;97880.34;106135;1255;109488;-79
2024/03/27 00:28:35;;;;;;;10.10;5.10;;;;;;;4.28;56.90;97878.78;106980;1256;96700;-77
2024/03/27 00:31:04;;;;;;;10.20;4.50;;;;;;;4.27;56.91;97882.39;107066;1256;106226;-79
2024/03/27 00:33:33;;;;;;;8.20;4.10;;;;;;;4.25;56.85;97877.61;107006;1256;96578;-79
2024/03/27 00:36:01;;;;;;;7.80;4.80;;;;;;;4.24;56.77;97882.73;107025;1257;96647;-78
2024/03/27 00:38:29;;;;;;;9.30;5.20;;;;;;;4.25;56.93;97882.66;107189;1255;108742;-78
2024/03/27 00:40:57;;;;;;;8.50;4.40;;;;;;;4.29;56.90;97885.91;106990;1251;96570;-79
2024/03/27 00:43:25;;;;;;;9.80;4.60;;;;;;;4.29;56.96;97887.63;107190;1256;108141;-78
2024/03/27 00:45:53;;;;;;;9.60;4.80;;;;;;;4.30;57.03;97881.64;107223;1254;96598;-78
2024/03/27 00:48:22;;;;;;;8.10;4.30;;;;;;;4.31;56.86;97875.09;107000;1251;96501;-79
2024/03/27 00:50:50;;;;;;;8.00;4.90;;;;;;;4.28;56.98;97879.65;106847;1255;109864;-78
2024/03/27 00:53:22;;;;;;;8.90;4.70;;;;;;;4.25;56.93;97880.90;106313;1256;96523;-78
2024/03/27 00:55:57;;;;;;;8.20;4.50;;;;;;;4.22;56.95;97873.59;105769;1257;107648;-79
2024/03/27 00:58:25;;;;;;;7.60;4.40;;;;;;;4.20;57.22;97866.48;105917;1256;99272;-79
2024/03/27 01:00:53;;;;;;;9.10;4.80;;;;;;;4.15;57.04;97870.14;105636;1257;97961;-80
2024/03/27 01:03:24;;;;;;;8.30;4.60;;;;;;;4.10;57.08;97868.55;105864;1256;111237;-79
2024/03/27 01:05:52;;;;;;;7.60;4.80;;;;;;;4.06;57.07;97868.82;105885;1257;98038;-78
2024/03/27 01:08:23;;;;;;;6.50;3.80;;;;;;;4.02;57.11;97868.39;105877;1256;107643;-79
2024/03/27 01:10:54;;;;;;;7.90;4.80;;;;;;;3.98;57.39;97870.35;105926;1256;98470;-81
2024/03/27 01:13:22;;;;;;;8.50;4.60;;;;;;;3.94;57.24;97872.41;105926;1255;98053;-80
2024/03/27 01:15:51;;;;;;;9.60;4.80;;;;;;;3.89;57.32;97870.56;105763;1256;109873;-80
2024/03/27 01:18:19;;;;;;;9.40;4.00;;;;;;;3.88;57.27;97871.39;105668;1266;99419;-78
2024/03/27 01:20:47;;;;;;;8.10;3.70;;;;;;;3.78;57.13;97873.42;105681;1256;107577;-78
2024/03/27 01:23:15;;;;;;;7.60;4.50;;;;;;;3.70;57.01;97866.39;105623;1256;97948;-78
2024/03/27 01:25:43;;;;;;;7.30;4.10;;;;;;;3.59;57.41;97867.79;106348;1256;97855;-79
2024/03/27 01:28:11;;;;;;;9.70;4.60;;;;;;;3.52;57.52;97865.92;105766;1251;111362;-79
2024/03/27 01:30:40;;;;;;;7.00;4.20;;;;;;;3.48;57.24;97863.55;105623;1256;97974;-78
2024/03/27 01:33:08;;;;;;;10.00;4.80;;;;;;;3.46;57.43;97862.67;105984;1256;107323;-81
2024/03/27 01:35:36;;;;;;;8.00;4.00;;;;;;;3.43;57.75;97859.10;106113;1256;97941;-78
2024/03/27 01:38:04;;;;;;;9.00;5.00;;;;;;;3.40;57.34;97859.31;105810;1267;98035;-78
2024/03/27 01:40:32;;;;;;;7.10;4.00;;;;;;;3.38;57.64;97854.02;105942;1255;111025;-79
2024/03/27 01:43:00;;;;;;;6.80;4.10;;;;;;;3.41;57.64;97861.86;105897;1260;98041;-79
2024/03/27 01:45:29;;;;;;;7.10;3.90;;;;;;;3.40;57.60;97858.09;107098;1255;106261;-79
2024/03/27 01:47:57;;;;;;;7.80;4.40;;;;;;;3.34;57.59;97857.08;105844;1257;98226;-79
2024/03/27 01:50:28;;;;;;;10.20;4.40;;;;;;;3.30;57.60;97855.73;105934;1250;98050;-79
2024/03/27 01:52:58;;;;;;;6.50;4.00;;;;;;;3.26;57.45;97852.99;105823;1256;112287;-78
2024/03/27 01:55:29;;;;;;;7.70;4.50;;;;;;;3.20;57.63;97855.27;105905;1256;97945;-79
2024/03/27 01:57:59;;;;;;;6.40;4.00;;;;;;;3.12;57.37;97855.95;105914;1266;107606;-79
2024/03/27 02:00:27;;;;;;;7.40;3.90;;;;;;;3.05;57.47;97851.63;105997;1264;99302;-79
2024/03/27 02:02:55;;;;;;;12.40;4.20;;;;;;;3.00;57.70;97847.40;106074;1256;97948;-78
2024/03/27 02:05:24;;;;;;;7.70;3.80;;;;;;;2.92;57.43;97849.27;105730;1256;110853;-78
2024/03/27 02:07:52;;;;;;;7.10;4.30;;;;;;;2.84;57.67;97847.15;105868;1265;97861;-79
2024/03/27 02:10:20;;;;;;;5.80;3.80;;;;;;;2.79;57.74;97843.91;105720;1256;107905;-79
2024/03/27 02:12:48;;;;;;;6.90;3.90;;;;;;;2.73;57.65;97844.67;105708;1257;97979;-79
2024/03/27 02:15:18;;;;;;;7.70;4.30;;;;;;;2.61;57.56;97840.30;105898;1255;97929;-78
2024/03/27 02:17:46;;;;;;;6.90;4.20;;;;;;;2.53;57.66;97839.52;105764;1256;110945;-79
2024/03/27 02:20:14;;;;;;;7.20;3.90;;;;;;;2.51;57.75;97836.83;106620;1253;97892;-78
2024/03/27 02:22:43;;;;;;;9.50;4.50;;;;;;;2.47;57.63;97838.98;105784;1264;106630;-79
2024/03/27 02:25:16;;;;;;;8.70;4.60;;;;;;;2.43;57.55;97844.67;105813;1253;97999;-78
2024/03/27 02:27:48;;;;;;;7.30;4.10;;;;;;;2.46;58.16;97836.13;105855;1251;99327;-79
2024/03/27 02:30:16;;;;;;;7.30;4.00;;;;;;;2.46;58.05;97834.33;105527;1266;110749;-79
2024/03/27 02:32:44;;;;;;;7.30;4.00;;;;;;;2.46;57.95;97832.21;105852;1255;98032;-79
2024/03/27 02:35:12;;;;;;;7.60;4.30;;;;;;;2.49;58.06;97831.19;105826;1251;109782;-79
2024/03/27 02:37:43;;;;;;;8.80;3.80;;;;;;;2.52;57.98;97831.20;106927;1256;98102;-79
2024/03/27 02:40:14;;;;;;;8.80;4.40;;;;;;;2.56;58.18;97831.30;105622;1256;98043;-80
2024/03/27 02:42:42;;;;;;;6.90;4.10;;;;;;;2.61;58.30;97828.56;105880;1255;109470;-79
2024/03/27 02:45:12;;;;;;;7.40;4.20;;;;;;;2.63;58.15;97835.77;105945;1256;98057;-79
2024/03/27 02:47:41;;;;;;;8.50;4.90;;;;;;;2.63;58.13;97828.08;105411;1251;107750;-79
2024/03/27 02:50:11;;;;;;;9.20;5.00;;;;;;;2.61;58.06;97823.86;105819;1256;98060;-79
2024/03/27 02:52:42;;;;;;;7.20;3.70;;;;;;;2.63;58.22;97822.49;105897;1255;97869;-79
2024/03/27 02:55:12;;;;;;;6.70;4.20;;;;;;;2.65;58.50;97824.45;106258;1251;111280;-79
2024/03/27 02:57:42;;;;;;;7.70;4.10;;;;;;;2.69;58.23;97820.01;105876;1256;98613;-79
2024/03/27 03:00:17;;;;;;;11.10;4.40;;;;;;;2.75;58.43;97815.83;105721;1255;107745;-79
2024/03/27 03:02:45;;;;;;;9.40;4.40;;;;;;;2.76;58.47;97814.89;105946;1254;99097;-79
2024/03/27 03:05:13;;;;;;;9.40;4.60;;;;;;;2.77;58.45;97809.21;105802;1255;97953;-79
2024/03/27 03:07:41;;;;;;;11.10;4.60;;;;;;;2.77;58.39;97808.15;105605;1251;111613;-78
2024/03/27 03:10:09;;;;;;;11.40;4.90;;;;;;;2.77;58.44;97803.45;105882;1256;98114;-79
2024/03/27 03:12:39;;;;;;;6.90;4.30;;;;;;;2.74;58.33;97799.40;106813;1256;108202;-78
2024/03/27 03:15:09;;;;;;;7.50;4.10;;;;;;;2.72;58.22;97793.41;105688;1257;97948;-78
2024/03/27 03:17:40;;;;;;;10.40;4.30;;;;;;;2.69;58.37;97792.34;105654;1257;97950;-79
2024/03/27 03:20:09;;;;;;;8.40;4.60;;;;;;;2.67;58.50;97782.85;105829;1255;111418;-79
2024/03/27 03:22:44;;;;;;;6.60;4.30;;;;;;;2.66;58.54;97786.59;105665;1256;97971;-79
2024/03/27 03:25:12;;;;;;;8.00;4.20;;;;;;;2.65;58.69;97782.77;105885;1254;106319;-79
2024/03/27 03:27:45;;;;;;;5.60;3.90;;;;;;;2.65;58.66;97779.66;106116;1260;97957;-79
2024/03/27 03:30:17;;;;;;;10.50;4.40;;;;;;;2.63;58.40;97772.09;106755;1257;97920;-79
2024/03/27 03:32:50;;;;;;;6.30;3.60;;;;;;;2.60;58.70;97769.64;105719;1251;112407;-78
2024/03/27 03:35:19;;;;;;;8.20;4.30;;;;;;;2.60;58.54;97769.11;105915;1264;98865;-79
2024/03/27 03:37:47;;;;;;;6.90;3.90;;;;;;;2.58;58.51;97766.09;105849;1257;106463;-79
2024/03/27 03:40:17;;;;;;;7.10;4.20;;;;;;;2.58;58.71;97758.40;105584;1257;98037;-79
2024/03/27 03:42:45;;;;;;;6.50;3.90;;;;;;;2.55;58.70;97752.45;105883;1256;99294;-79
2024/03/27 03:45:12;;;;;;;9.70;4.10;;;;;;;2.56;58.76;97758.34;106059;1251;111202;-80
2024/03/27 03:47:43;;;;;;;6.90;3.80;;;;;;;2.56;58.66;97752.88;106684;1264;97853;-79
2024/03/27 03:50:13;;;;;;;7.30;3.70;;;;;;;2.57;58.78;97747.23;105744;1264;107556;-79
2024/03/27 03:52:42;;;;;;;11.20;4.50;;;;;;;2.57;58.70;97744.11;105711;1256;98038;-79
2024/03/27 03:55:10;;;;;;;11.40;4.60;;;;;;;2.59;59.17;97750.98;105917;1251;97830;-80
2024/03/27 03:57:38;;;;;;;10.10;4.50;;;;;;;2.60;59.14;97743.57;105815;1251;111159;-79
2024/03/27 04:00:20;;;;;;;11.90;4.80;;;;;;;2.62;59.16;97738.89;105653;1260;98965;-80
2024/03/27 04:02:48;;;;;;;8.60;4.40;;;;;;;2.62;59.12;97737.13;106908;1255;107668;-79
2024/03/27 04:05:16;;;;;;;9.20;4.10;;;;;;;2.61;59.05;97731.43;106154;1257;99279;-80
2024/03/27 04:07:47;;;;;;;9.90;4.30;;;;;;;2.63;59.13;97730.40;105866;1255;97950;-79
2024/03/27 04:10:18;;;;;;;7.80;4.80;;;;;;;2.64;58.96;97730.54;105927;1256;111259;-79
2024/03/27 04:12:45;;;;;;;7.10;4.10;;;;;;;2.64;59.01;97728.56;105558;1257;98043;-79
2024/03/27 04:15:14;;;;;;;6.30;3.40;;;;;;;2.64;58.76;97729.47;105853;1251;107687;-79
2024/03/27 04:17:46;;;;;;;8.10;4.30;;;;;;;2.62;58.84;97729.64;105881;1257;97952;-80
2024/03/27 04:20:16;;;;;;;8.00;3.80;;;;;;;2.60;58.93;97730.96;105986;1258;98032;-79
2024/03/27 04:22:48;;;;;;;10.10;4.50;;;;;;;2.58;58.92;97730.73;107126;1250;114030;-81
2024/03/27 04:25:19;;;;;;;10.00;4.40;;;;;;;2.59;58.97;97725.09;106160;1256;98060;-79
2024/03/27 04:27:47;;;;;;;9.00;4.90;;;;;;;2.61;59.08;97729.84;105686;1251;108467;-79
2024/03/27 04:30:16;;;;;;;15.20;5.40;;;;;;;2.65;59.26;97729.45;105718;1257;98060;-80
2024/03/27 04:32:45;;;;;;;11.70;5.20;;;;;;;2.69;59.14;97728.84;105680;1251;98072;-79
2024/03/27 04:35:13;;;;;;;10.70;5.30;;;;;;;2.73;59.33;97730.19;105781;1254;110263;-79
2024/03/27 04:37:45;;;;;;;10.90;5.40;;;;;;;2.74;59.15;97728.55;105733;1267;97974;-78
2024/03/27 04:40:17;;;;;;;10.90;5.20;;;;;;;2.70;59.22;97726.52;106331;1257;106031;-80
2024/03/27 04:42:45;;;;;;;11.70;5.70;;;;;;;2.61;59.21;97727.05;106498;1264;97952;-79
2024/03/27 04:45:12;;;;;;;10.50;4.90;;;;;;;2.53;59.27;97726.67;106145;1254;98093;-79
2024/03/27 04:47:40;;;;;;;11.10;4.80;;;;;;;2.45;59.18;97723.98;105601;1257;113271;-79
2024/03/27 04:50:11;;;;;;;9.20;4.60;;;;;;;2.44;59.45;97724.23;105944;1251;97958;-80
2024/03/27 04:52:39;;;;;;;8.60;4.50;;;;;;;2.46;59.35;97718.15;105918;1256;108333;-79
2024/03/27 04:55:10;;;;;;;6.90;4.00;;;;;;;2.50;59.60;97715.42;105783;1257;98001;-78
2024/03/27 04:57:38;;;;;;;9.40;4.50;;;;;;;2.57;59.70;97716.41;106056;1255;97906;-79
2024/03/27 05:00:13;;;;;;;6.60;3.90;;;;;;;2.62;59.54;97705.97;107336;1256;109934;-80
2024/03/27 05:03:46;;;;;;;;;;;;;;;;;;;;;
2024/03/27 05:15:55;;;;;;;;;;;;;;;;;;;;;
2024/03/27 11:04:02;;;;;;;5.00;2.30;;;;;;;14.93;53.56;97554.05;102382;1291;651131;-77
2024/03/27 11:06:55;;;;;;;3.00;2.10;;;;;;;15.00;53.67;97552.30;104711;1268;96107;-80
2024/03/27 11:09:28;;;;;;;9.00;2.30;;;;;;;15.09;53.57;97551.28;105251;1261;96164;-77
2024/03/27 11:12:01;;;;;;;4.10;2.20;;;;;;;15.09;53.54;97545.57;105478;1260;95395;-78
2024/03/27 11:14:37;;;;;;;2.90;1.90;;;;;;;15.11;53.50;97547.56;105378;1263;95277;-77
2024/03/27 11:17:34;;;;;;;3.20;2.10;;;;;;;15.11;53.39;97549.17;105076;1261;239741;-77
2024/03/27 11:20:14;;;;;;;4.30;1.90;;;;;;;15.10;53.37;97548.16;105240;1259;96246;-77
2024/03/27 11:22:55;;;;;;;4.50;1.80;;;;;;;15.12;53.28;97544.58;105254;1259;95254;-79
2024/03/27 11:25:38;;;;;;;3.00;1.60;;;;;;;15.15;53.33;97541.68;105263;1260;109738;-77
2024/03/27 11:28:22;;;;;;;3.90;2.00;;;;;;;15.23;53.49;97545.80;105337;1253;96377;-78
2024/03/27 11:30:49;;;;;;;10.50;3.00;;;;;;;15.26;53.42;97541.54;105278;1254;106663;-76
2024/03/27 11:33:27;;;;;;;3.90;1.90;;;;;;;15.28;53.31;97550.52;105463;1259;96650;-77
2024/03/27 11:36:02;;;;;;;4.80;2.10;;;;;;;15.34;53.29;97547.53;105506;1259;96520;-78
2024/03/27 11:38:35;;;;;;;4.10;2.40;;;;;;;15.38;53.23;97547.70;105141;1254;109549;-78
2024/03/27 11:41:07;;;;;;;3.50;2.00;;;;;;;15.40;53.25;97542.80;105495;1256;96585;-78
2024/03/27 11:43:44;;;;;;;3.30;2.00;;;;;;;15.39;52.85;97542.33;105754;1266;105771;-77
2024/03/27 11:46:11;;;;;;;4.10;1.70;;;;;;;15.39;52.96;97539.13;105195;1259;96601;-76
2024/03/27 11:48:45;;;;;;;4.80;2.10;;;;;;;15.43;52.90;97536.14;105096;1260;96634;-77
2024/03/27 11:51:19;;;;;;;4.10;1.90;;;;;;;15.45;52.88;97537.71;105361;1259;109897;-78
2024/03/27 11:53:50;;;;;;;4.50;2.30;;;;;;;15.44;52.77;97536.00;105331;1269;96673;-77
2024/03/27 11:56:44;;;;;;;6.70;2.40;;;;;;;15.47;52.90;97534.27;105571;1260;107633;-77
2024/03/27 11:59:40;;;;;;;3.50;1.80;;;;;;;15.54;52.90;97535.60;105215;1256;97554;-78
2024/03/27 12:02:16;;;;;;;2.90;1.90;;;;;;;15.59;52.75;97530.14;105260;1255;96597;-77
2024/03/27 12:04:55;;;;;;;3.80;2.00;;;;;;;15.64;52.78;97529.26;105348;1256;109619;-78
2024/03/27 12:07:36;;;;;;;3.10;2.20;;;;;;;15.72;52.80;97537.41;105494;1257;96606;-78
2024/03/27 12:10:26;;;;;;;3.10;1.90;;;;;;;15.76;52.55;97535.70;105428;1256;107184;-77
2024/03/27 12:13:18;;;;;;;3.10;2.00;;;;;;;15.72;52.47;97537.25;105252;1256;97906;-78
2024/03/27 12:16:01;;;;;;;3.80;1.80;;;;;;;15.72;52.37;97532.55;105408;1255;96608;-76
2024/03/27 12:18:41;;;;;;;3.70;1.60;;;;;;;15.72;52.33;97535.28;105241;1256;109247;-77
2024/03/27 12:21:28;;;;;;;;;;;;;;;;;;;;;
2024/03/27 12:24:19;;;;;;;2.80;1.70;;;;;;;15.74;52.06;97531.46;105372;1253;107760;-77
2024/03/27 12:26:50;;;;;;;6.40;2.10;;;;;;;15.73;52.07;97530.52;105461;1253;96942;-76
2024/03/27 12:29:21;;;;;;;3.40;2.10;;;;;;;15.74;51.99;97531.23;105467;1264;97555;-77
2024/03/27 12:32:00;;;;;;;3.10;2.00;;;;;;;15.74;51.90;97523.73;105335;1256;110564;-78
2024/03/27 12:34:42;;;;;;;4.00;1.80;;;;;;;15.74;51.85;97519.85;105364;1256;96617;-77
2024/03/27 12:37:15;;;;;;;4.30;2.00;;;;;;;15.76;51.84;97520.86;105420;1255;107623;-77
2024/03/27 12:39:50;;;;;;;4.00;1.90;;;;;;;15.80;51.86;97515.36;105254;1265;97932;-77
2024/03/27 12:42:22;;;;;;;3.70;2.40;;;;;;;15.79;51.63;97513.52;105545;1256;96871;-78
2024/03/27 12:45:04;;;;;;;3.90;2.00;;;;;;;15.83;51.52;97517.42;105440;1265;109675;-78
2024/03/27 12:47:33;;;;;;;6.20;2.10;;;;;;;15.85;51.53;97517.27;105570;1264;96577;-77
2024/03/27 12:50:02;;;;;;;4.30;2.30;;;;;;;15.87;51.56;97514.63;105337;1257;96552;-78
2024/03/27 12:53:10;;;;;;;7.50;1.90;;;;;;;15.88;51.60;97511.02;105372;1266;97979;-77
2024/03/27 12:55:51;;;;;;;3.80;1.90;;;;;;;15.93;51.67;97500.40;105609;1256;97551;-78
2024/03/27 12:58:37;;;;;;;3.40;2.00;;;;;;;15.99;51.45;97504.98;105543;1251;112189;-78
2024/03/27 13:01:33;;;;;;;5.70;2.30;;;;;;;16.01;51.41;97505.29;105384;1251;96610;-78
2024/03/27 13:04:10;;;;;;;2.90;1.60;;;;;;;16.01;51.55;97498.27;105328;1257;107564;-79
2024/03/27 13:07:02;;;;;;;4.10;1.90;;;;;;;16.05;51.60;97497.10;105345;1265;97424;-78
2024/03/27 13:09:37;;;;;;;2.90;1.70;;;;;;;16.08;51.51;97496.52;105591;1256;97533;-77
2024/03/27 13:12:18;;;;;;;5.10;1.70;;;;;;;16.09;51.44;97495.89;105705;1264;110077;-78
2024/03/27 13:14:56;;;;;;;3.80;1.70;;;;;;;16.11;51.33;97490.98;105425;1256;97988;-78
2024/03/27 13:17:34;;;;;;;4.00;1.80;;;;;;;16.09;51.27;97486.77;105413;1256;109543;-78
2024/03/27 13:20:11;;;;;;;4.70;2.30;;;;;;;16.11;51.22;97481.94;105487;1256;96655;-79
2024/03/27 13:22:47;;;;;;;5.30;2.60;;;;;;;16.11;51.24;97477.62;105434;1256;96662;-78
2024/03/27 13:25:36;;;;;;;3.90;2.00;;;;;;;16.12;51.10;97476.75;105307;1264;109611;-78
2024/03/27 13:28:15;;;;;;;5.20;2.10;;;;;;;16.14;51.30;97478.14;105298;1265;96595;-79
2024/03/27 13:30:47;;;;;;;4.20;1.90;;;;;;;16.19;51.17;97481.44;105498;1264;107351;-78
2024/03/27 13:33:39;;;;;;;3.00;1.60;;;;;;;16.21;51.09;97479.77;105782;1264;96623;-78
2024/03/27 13:36:17;;;;;;;4.30;1.90;;;;;;;16.18;51.09;97474.64;105645;1264;96702;-79
2024/03/27 13:39:05;;;;;;;6.30;1.80;;;;;;;16.17;51.11;97468.15;105724;1256;109835;-78
2024/03/27 13:41:39;;;;;;;3.10;1.80;;;;;;;16.23;51.13;97470.06;105347;1259;97802;-78
2024/03/27 13:44:35;;;;;;;3.60;1.80;;;;;;;16.27;51.04;97468.83;105644;1251;107667;-78
2024/03/27 13:47:19;;;;;;;4.50;1.80;;;;;;;16.27;50.78;97469.40;105371;1255;96610;-78
2024/03/27 13:50:05;;;;;;;5.20;2.10;;;;;;;16.28;50.86;97475.90;105358;1256;96574;-78
2024/03/27 13:52:47;;;;;;;4.70;1.90;;;;;;;16.28;50.86;97474.98;105381;1257;109484;-78
2024/03/27 13:55:35;;;;;;;3.30;1.90;;;;;;;16.25;50.88;97474.50;105978;1257;96610;-77
2024/03/27 13:58:19;;;;;;;5.50;2.60;;;;;;;16.24;50.74;97475.68;105327;1265;107374;-79
2024/03/27 14:01:14;;;;;;;6.20;3.40;;;;;;;16.25;50.91;97471.20;105323;1257;96610;-79
2024/03/27 14:03:54;;;;;;;7.60;3.20;;;;;;;16.29;50.69;97468.81;105377;1255;97948;-79
2024/03/27 14:06:45;;;;;;;3.80;2.20;;;;;;;16.28;50.67;97462.70;105495;1257;110375;-76
2024/03/27 14:09:21;;;;;;;4.60;2.10;;;;;;;16.28;50.59;97464.83;105407;1255;96615;-77
2024/03/27 14:12:00;;;;;;;4.20;2.00;;;;;;;16.30;50.62;97459.53;105561;1266;107336;-76
2024/03/27 14:14:38;;;;;;;6.30;2.60;;;;;;;16.37;50.64;97455.55;105850;1254;97806;-77
2024/03/27 14:17:36;;;;;;;7.20;3.00;;;;;;;16.46;50.67;97450.08;105587;1257;97206;-77
2024/03/27 14:20:07;;;;;;;4.90;2.10;;;;;;;16.57;50.48;97451.00;105525;1251;109856;-77
2024/03/27 14:22:44;;;;;;;3.90;1.90;;;;;;;16.61;50.40;97446.59;105547;1260;96735;-77
2024/03/27 14:25:53;;;;;;;;;;;;;;;;;;;;;
2024/03/27 14:28:32;;;;;;;6.40;2.10;;;;;;;16.74;50.27;97435.86;105573;1265;96639;-77
2024/03/27 14:31:12;;;;;;;4.30;1.80;;;;;;;16.81;50.51;97435.05;105769;1256;96586;-78
2024/03/27 14:33:52;;;;;;;2.80;1.80;;;;;;;16.88;50.56;97433.67;105807;1257;109097;-78
2024/03/27 14:36:22;;;;;;;4.90;1.80;;;;;;;16.89;50.37;97431.65;105538;1256;96658;-78
2024/03/27 14:38:56;;;;;;;4.70;1.90;;;;;;;16.90;50.29;97431.09;105587;1256;107574;-77
2024/03/27 14:41:28;;;;;;;3.90;2.40;;;;;;;16.90;50.00;97430.96;105641;1255;96728;-79
2024/03/27 14:44:02;;;;;;;2.80;1.90;;;;;;;16.86;49.79;97422.77;105782;1257;96633;-77
2024/03/27 14:46:42;;;;;;;3.70;1.90;;;;;;;16.82;49.67;97418.09;105582;1251;109534;-78
2024/03/27 14:49:22;;;;;;;3.00;1.80;;;;;;;16.76;49.49;97416.34;105498;1265;97934;-78
2024/03/27 14:52:00;;;;;;;6.90;1.80;;;;;;;16.72;49.49;97417.04;105438;1267;107634;-78
2024/03/27 14:54:32;;;;;;;3.20;1.80;;;;;;;16.67;49.43;97412.62;105552;1257;96617;-78
2024/03/27 14:57:24;;;;;;;4.80;2.10;;;;;;;16.61;49.55;97412.98;105486;1256;97161;-78
2024/03/27 14:59:59;;;;;;;3.70;2.00;;;;;;;16.63;49.56;97410.06;105384;1256;108530;-77
2024/03/27 15:02:36;;;;;;;3.50;1.60;;;;;;;16.67;49.43;97408.75;105685;1251;97507;-78
2024/03/27 15:05:06;;;;;;;5.10;1.80;;;;;;;16.69;49.39;97404.58;105325;1251;107654;-78
2024/03/27 15:07:36;;;;;;;3.60;1.80;;;;;;;16.67;49.25;97401.75;105561;1257;96607;-77
2024/03/27 15:10:04;;;;;;;2.60;1.70;;;;;;;16.63;49.34;97399.20;105674;1251;96565;-78
2024/03/27 15:12:34;;;;;;;5.60;1.90;;;;;;;16.56;49.18;97395.20;105574;1266;110161;-77
2024/03/27 15:15:07;;;;;;;3.00;1.80;;;;;;;16.48;49.09;97398.27;105618;1256;97963;-82
2024/03/27 15:17:41;;;;;;;6.60;1.90;;;;;;;16.44;49.19;97402.77;105380;1267;106124;-77
2024/03/27 15:20:12;;;;;;;4.60;2.30;;;;;;;16.39;49.03;97406.92;105548;1256;96624;-76
2024/03/27 15:22:42;;;;;;;4.80;1.90;;;;;;;16.34;48.91;97401.29;105601;1255;96576;-77
2024/03/27 15:25:12;;;;;;;7.50;2.30;;;;;;;16.31;48.88;97399.73;105399;1254;96607;-77
2024/03/27 15:27:41;;;;;;;5.10;2.30;;;;;;;16.28;49.00;97402.71;105601;1266;96691;-80
2024/03/27 15:30:12;;;;;;;4.90;2.00;;;;;;;16.29;48.89;97404.98;105405;1257;98887;-78
2024/03/27 15:32:40;;;;;;;4.30;2.30;;;;;;;16.26;48.73;97403.39;105747;1257;97974;-78
2024/03/27 15:35:07;;;;;;;7.10;2.80;;;;;;;16.23;48.87;97403.32;105603;1257;98015;-76
2024/03/27 15:37:48;;;;;;;3.90;2.20;;;;;;;16.19;48.78;97395.10;105604;1251;111172;-78
2024/03/27 15:40:17;;;;;;;4.90;3.00;;;;;;;16.15;48.87;97398.95;105823;1256;98012;-78
2024/03/27 15:42:47;;;;;;;5.60;3.00;;;;;;;16.11;48.69;97398.35;105548;1264;107597;-78
2024/03/27 15:45:14;;;;;;;7.00;2.30;;;;;;;16.08;48.88;97392.44;105707;1256;98038;-77
2024/03/27 15:47:43;;;;;;;4.30;2.30;;;;;;;16.05;48.80;97392.80;105581;1266;99281;-77
2024/03/27 15:50:13;;;;;;;7.60;2.50;;;;;;;16.01;48.74;97393.13;105450;1265;111325;-78
2024/03/27 15:52:44;;;;;;;6.00;2.30;;;;;;;15.98;48.76;97387.98;105514;1251;97958;-76
2024/03/27 15:55:17;;;;;;;6.90;2.40;;;;;;;15.96;48.71;97388.80;105621;1256;106916;-77
2024/03/27 15:57:51;;;;;;;8.50;2.80;;;;;;;15.91;48.53;97380.74;105598;1255;99261;-77
2024/03/27 16:00:25;;;;;;;5.60;2.70;;;;;;;15.86;48.66;97381.92;105641;1251;98660;-78
2024/03/27 16:02:54;;;;;;;5.40;2.40;;;;;;;15.80;48.60;97377.73;105719;1252;109430;-78
2024/03/27 16:05:26;;;;;;;6.10;3.30;;;;;;;15.76;48.43;97381.80;105650;1256;98102;-78
2024/03/27 16:08:00;;;;;;;9.70;3.20;;;;;;;15.71;48.53;97377.38;105384;1257;107377;-77
2024/03/27 16:10:29;;;;;;;5.70;2.90;;;;;;;15.67;48.50;97374.39;105581;1251;97949;-76
2024/03/27 16:12:59;;;;;;;4.60;3.00;;;;;;;15.62;48.44;97378.09;105597;1255;98075;-79
2024/03/27 16:15:28;;;;;;;6.60;2.80;;;;;;;15.58;48.48;97381.61;105464;1257;110908;-78
2024/03/27 16:17:57;;;;;;;6.60;2.50;;;;;;;15.51;48.41;97374.63;105941;1256;98875;-78
2024/03/27 16:20:27;;;;;;;5.00;2.20;;;;;;;15.50;48.51;97378.33;105533;1260;107617;-77
2024/03/27 16:22:55;;;;;;;3.40;2.10;;;;;;;15.45;48.41;97380.40;105706;1254;97937;-77
2024/03/27 16:25:29;;;;;;;5.40;2.60;;;;;;;15.40;48.40;97380.79;105409;1256;98039;-77
2024/03/27 16:27:56;;;;;;;4.50;2.20;;;;;;;15.34;48.28;97380.90;105347;1257;111957;-78
2024/03/27 16:30:33;;;;;;;5.10;2.60;;;;;;;15.27;48.26;97385.09;105786;1257;97948;-78
2024/03/27 16:33:02;;;;;;;;;;;;;;;15.23;48.26;97386.30;105380;1257;107390;-78
2024/03/27 16:35:33;;;;;;;8.60;3.10;;;;;;;15.18;48.32;97388.21;105798;1254;98279;-78
2024/03/27 16:37:59;;;;;;;21.90;4.70;;;;;;;15.12;48.17;97389.47;105661;1251;98009;-78
2024/03/27 16:40:26;;;;;;;13.10;5.10;;;;;;;15.07;48.20;97394.99;105813;1257;98155;-77
2024/03/27 16:42:53;;;;;;;10.20;6.10;;;;;;;15.01;48.17;97398.17;105579;1256;97997;-78
2024/03/27 16:45:19;;;;;;;12.20;4.80;;;;;;;14.97;48.22;97398.06;105594;1251;97979;-78
2024/03/27 16:47:46;;;;;;;7.40;3.90;;;;;;;14.93;48.11;97390.53;105709;1257;97973;-79
2024/03/27 16:50:15;;;;;;;9.50;3.70;;;;;;;14.89;48.24;97389.41;105668;1254;98413;-78
2024/03/27 16:52:42;;;;;;;7.90;3.40;;;;;;;14.86;48.16;97383.91;105683;1251;98393;-78
2024/03/27 16:55:08;;;;;;;7.70;4.10;;;;;;;14.86;48.26;97382.84;105647;1257;98249;-78
2024/03/27 16:57:36;;;;;;;6.10;3.10;;;;;;;14.85;48.20;97385.59;105391;1257;98019;-79
2024/03/27 17:00:07;;;;;;;4.40;2.60;;;;;;;14.85;48.20;97379.17;105610;1257;97980;-78
2024/03/27 17:02:41;;;;;;;7.30;4.00;;;;;;;14.85;48.22;97374.73;105755;1255;97880;-78
2024/03/27 17:05:10;;;;;;;10.80;4.50;;;;;;;14.81;48.06;97371.11;105385;1251;111218;-77
2024/03/27 17:07:45;;;;;;;6.80;4.00;;;;;;;14.75;48.07;97370.35;106062;1257;98094;-79
2024/03/27 17:10:17;;;;;;;7.90;3.40;;;;;;;14.71;48.03;97370.61;105719;1257;108075;-78
2024/03/27 17:12:51;;;;;;;10.50;4.60;;;;;;;14.68;48.05;97376.64;105592;1251;97887;-79
2024/03/27 17:15:18;;;;;;;6.00;3.30;;;;;;;14.64;48.02;97380.71;105440;1255;98099;-78
2024/03/27 17:17:45;;;;;;;7.00;3.60;;;;;;;14.60;47.99;97384.77;105983;1256;97987;-77
2024/03/27 17:20:12;;;;;;;7.70;3.50;;;;;;;14.55;47.91;97386.33;106194;1257;97960;-78
2024/03/27 17:22:46;;;;;;;11.50;5.30;;;;;;;14.50;47.87;97390.71;107436;1253;108060;-78
2024/03/27 17:25:13;;;;;;;11.00;5.10;;;;;;;14.47;47.89;97393.38;105689;1254;98071;-79
2024/03/27 17:27:44;;;;;;;11.20;5.00;;;;;;;14.44;47.83;97391.59;105775;1253;97888;-78
2024/03/27 17:30:16;;;;;;;8.20;4.40;;;;;;;14.39;47.93;97389.25;105785;1251;111816;-78
2024/03/27 17:32:52;;;;;;;8.80;4.10;;;;;;;14.37;47.87;97390.90;105694;1256;98038;-80
2024/03/27 17:35:27;;;;;;;6.60;4.00;;;;;;;14.34;47.94;97387.91;105915;1253;107542;-80
2024/03/27 17:37:55;;;;;;;6.80;3.90;;;;;;;14.30;47.80;97384.58;106622;1255;97920;-78
2024/03/27 17:40:29;;;;;;;12.00;5.00;;;;;;;14.27;47.83;97388.24;106736;1256;97875;-80
2024/03/27 17:43:01;;;;;;;11.70;4.50;;;;;;;14.23;47.79;97388.38;105695;1256;111258;-79
2024/03/27 17:46:05;;;;;;;10.40;3.70;;;;;;;14.19;47.84;97387.23;105709;1255;97956;-80
2024/03/27 17:48:54;;;;;;;10.10;3.90;;;;;;;14.15;47.79;97386.36;105635;1259;108071;-81
2024/03/27 17:51:24;;;;;;;7.20;4.10;;;;;;;14.12;47.77;97384.98;105648;1251;97867;-81
2024/03/27 17:53:57;;;;;;;8.60;3.80;;;;;;;14.09;47.80;97388.05;105869;1253;98042;-79